Time;durP1;ratioP1;P1;durP2;ratioP2;P2;SDS_P1;SDS_P2;PMS_P1;PMS_P2;Temp;Humidity;BMP_temperature;BMP_pressure;BME280_temperature;BME280_humidity;BME280_pressure;Samples;Min_cycle;Max_cycle;Signal;HPM_P1;HPM_P2
2022/06/19 00:01:59;;;;;;;4.30;3.87;;;;;;;18.55;59.40;100005.06;2004587;87;21073;-73
2022/06/19 00:05:01;;;;;;;8.05;3.80;;;;;;;18.49;59.51;100001.92;2004032;87;21088;-72
2022/06/19 00:08:03;;;;;;;7.25;3.55;;;;;;;18.41;59.96;99988.77;2001852;87;21587;-73
2022/06/19 00:11:07;;;;;;;9.30;3.55;;;;;;;18.22;60.36;99988.74;2003962;87;21033;-74
2022/06/19 00:14:10;;;;;;;6.17;3.50;;;;;;;18.12;60.71;99996.46;2002401;87;21461;-75
2022/06/19 00:17:13;;;;;;;4.62;3.47;;;;;;;18.09;60.90;99992.87;2010164;87;21020;-74
2022/06/19 00:20:17;;;;;;;8.55;3.60;;;;;;;18.05;61.14;99985.78;2008908;87;20965;-73
2022/06/19 00:23:19;;;;;;;5.78;3.58;;;;;;;18.03;61.14;99992.41;2002693;87;21073;-73
2022/06/19 00:26:20;;;;;;;7.60;3.85;;;;;;;18.02;61.34;99982.20;2003419;87;21069;-73
2022/06/19 00:29:22;;;;;;;5.80;3.90;;;;;;;18.00;61.58;99987.48;1999954;87;20996;-74
2022/06/19 00:32:25;;;;;;;6.00;4.05;;;;;;;17.95;61.64;99980.59;2006476;87;21037;-77
2022/06/19 00:35:27;;;;;;;6.35;4.12;;;;;;;17.92;61.98;99984.54;2007493;87;21478;-74
2022/06/19 00:38:29;;;;;;;6.90;4.15;;;;;;;17.81;62.16;99980.69;2004776;87;21705;-73
2022/06/19 00:41:41;;;;;;;3.90;3.50;;;;;;;17.79;62.29;99975.23;2008622;87;20995;-73
2022/06/19 00:44:43;;;;;;;6.28;4.08;;;;;;;17.79;62.37;99972.55;2004554;87;21056;-74
2022/06/19 00:47:45;;;;;;;8.68;4.92;;;;;;;17.80;62.46;99975.03;1983933;87;21028;-74
2022/06/19 00:50:50;;;;;;;6.40;3.83;;;;;;;17.77;62.67;99966.05;1980132;87;21065;-76
2022/06/19 00:53:52;;;;;;;6.17;3.80;;;;;;;17.75;62.66;99965.43;1984835;88;21006;-74
2022/06/19 00:56:53;;;;;;;7.00;3.72;;;;;;;17.74;62.75;99972.34;1983211;87;21552;-73
2022/06/19 01:00:00;;;;;;;6.42;4.12;;;;;;;17.72;62.93;99968.55;1977639;88;21027;-73
2022/06/19 01:03:10;;;;;;;7.40;4.22;;;;;;;17.70;63.25;99970.63;1978895;89;21067;-74
2022/06/19 01:06:13;;;;;;;6.47;4.17;;;;;;;17.63;63.38;99969.86;1983022;88;21065;-73
2022/06/19 01:09:17;;;;;;;7.22;4.20;;;;;;;17.62;63.58;99973.56;1977394;88;21073;-74
2022/06/19 01:12:20;;;;;;;7.28;3.87;;;;;;;17.56;63.73;99973.91;1985602;88;20961;-74
2022/06/19 01:15:25;;;;;;;4.62;3.83;;;;;;;17.51;63.81;99977.75;1976886;89;21061;-75
2022/06/19 01:18:28;;;;;;;6.22;4.00;;;;;;;17.46;64.12;99977.59;1983869;88;21084;-73
2022/06/19 01:21:46;;;;;;;5.67;3.50;;;;;;;17.33;64.56;99977.14;1982092;89;21013;-73
2022/06/19 01:25:05;;;;;;;5.55;3.52;;;;;;;17.21;64.71;99978.86;1974374;88;21465;-73
2022/06/19 01:31:49;;;;;;;7.55;4.08;;;;;;;17.12;65.24;99982.80;1981586;89;21113;-73
2022/06/19 01:34:52;;;;;;;6.55;4.10;;;;;;;17.05;65.35;99983.35;1984642;88;21028;-73
2022/06/19 01:37:56;;;;;;;5.62;4.35;;;;;;;17.00;65.74;99977.28;1980394;88;21097;-72
2022/06/19 01:41:03;;;;;;;9.15;4.25;;;;;;;16.97;65.74;99981.72;1982198;88;21646;-73
2022/06/19 01:44:06;;;;;;;8.73;4.40;;;;;;;16.94;66.08;99978.13;1981314;88;21533;-73
2022/06/19 01:47:08;;;;;;;8.25;4.47;;;;;;;16.94;66.46;99977.61;1983857;88;20990;-74
2022/06/19 01:50:15;;;;;;;9.43;4.40;;;;;;;16.91;66.67;99971.34;1984860;87;21093;-74
2022/06/19 01:53:27;;;;;;;7.00;4.40;;;;;;;16.88;66.83;99984.34;1984885;88;21054;-73
2022/06/19 01:56:30;;;;;;;8.15;5.33;;;;;;;16.84;66.82;99983.95;1986519;87;21093;-78
2022/06/19 01:59:34;;;;;;;8.28;4.70;;;;;;;16.77;66.91;99984.47;1985349;87;21026;-73
2022/06/19 02:02:37;;;;;;;6.92;4.08;;;;;;;16.72;66.96;99981.04;1992819;88;21127;-78
2022/06/19 02:05:40;;;;;;;7.75;4.58;;;;;;;16.70;67.03;99983.66;1986988;88;21035;-77
2022/06/19 02:08:43;;;;;;;5.95;4.08;;;;;;;16.65;67.31;99990.97;1988845;87;21045;-73
2022/06/19 02:11:45;;;;;;;4.85;4.35;;;;;;;16.57;67.44;99986.64;1985607;87;21069;-72
2022/06/19 02:14:47;;;;;;;6.42;4.95;;;;;;;16.56;67.57;99988.21;1983406;87;21021;-74
2022/06/19 02:17:52;;;;;;;5.05;4.50;;;;;;;16.52;67.63;99978.93;1987421;88;21051;-72
2022/06/19 02:20:54;;;;;;;5.08;4.58;;;;;;;16.46;67.88;99975.75;1984710;87;21045;-76
2022/06/19 02:23:58;;;;;;;8.35;4.10;;;;;;;16.38;68.10;99970.09;1988629;88;21062;-73
2022/06/19 02:27:01;;;;;;;6.60;4.45;;;;;;;16.34;68.06;99968.88;1987594;88;22425;-72
2022/06/19 02:30:07;;;;;;;5.92;4.90;;;;;;;16.30;68.43;99968.48;1989260;87;21873;-74
2022/06/19 02:33:16;;;;;;;5.97;4.60;;;;;;;16.28;68.74;99969.71;1987863;88;21758;-72
2022/06/19 02:36:41;;;;;;;7.95;4.85;;;;;;;16.31;68.81;99966.61;1985537;87;21737;-73
2022/06/19 02:40:15;;;;;;;5.53;4.72;;;;;;;16.31;69.04;99969.29;1986909;87;21033;-75
2022/06/19 02:43:22;;;;;;;6.95;4.33;;;;;;;16.30;69.01;99962.27;1985516;88;21041;-77
2022/06/19 02:46:24;;;;;;;6.15;4.37;;;;;;;16.31;69.05;99962.59;1988784;87;21125;-74
2022/06/19 02:49:25;;;;;;;7.87;4.20;;;;;;;16.33;69.00;99960.52;2007580;87;21080;-74
2022/06/19 02:52:27;;;;;;;7.20;4.33;;;;;;;16.36;68.90;99956.92;2009798;86;21100;-74
2022/06/19 02:55:29;;;;;;;9.08;5.17;;;;;;;16.39;68.96;99957.52;2003724;87;21128;-74
2022/06/19 02:58:31;;;;;;;9.05;4.62;;;;;;;16.38;69.03;99941.98;2004214;87;21064;-77
2022/06/19 03:01:32;;;;;;;5.70;4.20;;;;;;;16.39;69.05;99946.32;2009370;87;21040;-77
2022/06/19 03:04:42;;;;;;;11.97;4.80;;;;;;;16.37;69.19;99940.34;2004554;87;21087;-79
2022/06/19 03:07:46;;;;;;;6.33;4.42;;;;;;;16.41;69.39;99932.19;2002439;87;21072;-78
2022/06/19 03:10:47;;;;;;;8.23;4.58;;;;;;;16.50;69.70;99936.80;1982047;87;21041;-75
2022/06/19 03:13:49;;;;;;;5.53;4.33;;;;;;;16.59;69.55;99935.03;2003556;87;21497;-73
2022/06/19 03:16:52;;;;;;;9.48;4.12;;;;;;;16.65;69.55;99941.41;2002231;87;21568;-75
2022/06/19 03:19:55;;;;;;;5.62;4.22;;;;;;;16.70;69.57;99936.25;2005896;87;21091;-76
2022/06/19 03:22:57;;;;;;;6.03;4.17;;;;;;;16.78;69.59;99939.22;2002983;87;21378;-75
2022/06/19 03:26:00;;;;;;;4.90;4.40;;;;;;;16.88;69.42;99934.25;2002198;87;21675;-74
2022/06/19 03:29:03;;;;;;;6.78;4.67;;;;;;;17.01;69.72;99927.50;2003264;87;21025;-74
2022/06/19 03:32:10;;;;;;;5.50;4.47;;;;;;;17.16;69.60;99923.71;2002841;87;21616;-74
2022/06/19 03:35:13;;;;;;;5.70;4.85;;;;;;;17.31;69.48;99915.37;2003302;87;21041;-75
2022/06/19 03:38:14;;;;;;;6.55;3.75;;;;;;;17.44;69.34;99911.27;2005775;87;21494;-73
2022/06/19 03:41:17;;;;;;;8.45;3.90;;;;;;;17.56;69.21;99900.66;2004044;87;21048;-74
2022/06/19 03:44:18;;;;;;;4.95;4.30;;;;;;;17.69;69.12;99893.86;2007453;87;21102;-75
2022/06/19 03:47:24;;;;;;;5.10;3.98;;;;;;;17.81;68.95;99888.10;2006488;87;21088;-75
2022/06/19 03:50:25;;;;;;;7.37;4.15;;;;;;;17.95;68.78;99889.34;2004663;87;21028;-74
2022/06/19 03:53:27;;;;;;;8.13;4.22;;;;;;;18.08;68.59;99893.25;2007320;87;21053;-75
2022/06/19 03:56:32;;;;;;;5.33;3.75;;;;;;;18.19;68.46;99876.41;2005980;87;21059;-75
2022/06/19 03:59:34;;;;;;;5.70;3.85;;;;;;;18.44;68.31;99887.59;2007535;87;21064;-74
2022/06/19 04:02:35;;;;;;;7.78;4.10;;;;;;;18.65;68.19;99885.80;2003864;87;21041;-78
2022/06/19 04:05:37;;;;;;;8.40;3.92;;;;;;;18.85;67.74;99884.77;2002588;87;20997;-74
2022/06/19 04:08:39;;;;;;;4.47;3.80;;;;;;;19.07;67.46;99891.30;2004127;87;21089;-75
2022/06/19 04:11:43;;;;;;;6.42;4.55;;;;;;;19.28;67.22;99889.14;2005920;87;21021;-79
2022/06/19 04:14:45;;;;;;;7.35;3.77;;;;;;;19.55;66.94;99878.27;2004850;87;20997;-74
2022/06/19 04:17:46;;;;;;;7.12;3.95;;;;;;;19.80;66.59;99882.67;2003836;87;21656;-75
2022/06/19 04:20:48;;;;;;;5.40;3.77;;;;;;;19.96;66.38;99875.22;2008458;87;21052;-75
2022/06/19 04:23:57;;;;;;;4.15;3.75;;;;;;;20.00;65.92;99860.78;2001585;87;21056;-73
2022/06/19 04:26:58;;;;;;;5.15;3.95;;;;;;;20.14;65.78;99860.83;2002255;87;21093;-71
2022/06/19 04:30:01;;;;;;;6.37;3.50;;;;;;;20.24;65.60;99858.88;1987921;87;21044;-72
2022/06/19 04:33:03;;;;;;;3.72;3.42;;;;;;;20.38;65.37;99854.87;2003197;87;21041;-73
2022/06/19 04:36:13;;;;;;;4.75;3.75;;;;;;;20.52;64.76;99846.80;2001741;87;21481;-72
2022/06/19 04:39:15;;;;;;;7.97;3.33;;;;;;;20.75;64.52;99846.47;2006427;87;20998;-74
2022/06/19 04:42:16;;;;;;;5.33;4.03;;;;;;;20.85;64.18;99854.77;2006832;87;21060;-72
2022/06/19 04:45:18;;;;;;;10.23;4.03;;;;;;;21.09;63.91;99861.39;2007261;87;21504;-74
2022/06/19 04:48:20;;;;;;;8.18;3.85;;;;;;;21.40;63.67;99861.43;1993102;87;21498;-72
2022/06/19 04:51:21;;;;;;;6.58;3.25;;;;;;;21.65;63.12;99861.03;1988172;88;21109;-73
2022/06/19 04:54:23;;;;;;;5.55;3.17;;;;;;;21.90;62.80;99860.07;1987691;88;21114;-74
2022/06/19 04:57:24;;;;;;;5.28;3.37;;;;;;;22.22;62.08;99855.98;1985061;87;21054;-73
2022/06/19 05:00:26;;;;;;;5.85;3.00;;;;;;;22.48;62.10;99851.17;1984927;87;21065;-74
2022/06/19 05:03:28;;;;;;;3.62;3.30;;;;;;;22.83;61.63;99859.41;1984264;88;21062;-73
2022/06/19 05:06:36;;;;;;;5.10;2.87;;;;;;;23.17;60.75;99857.38;1983704;87;21603;-75
2022/06/19 05:09:42;;;;;;;2.98;2.75;;;;;;;23.43;60.39;99848.94;1984525;88;21019;-73
2022/06/19 05:12:45;;;;;;;3.20;2.87;;;;;;;23.72;59.77;99845.94;1983716;88;21073;-73
2022/06/19 05:15:48;;;;;;;6.45;3.45;;;;;;;23.99;58.78;99859.92;1984492;88;21038;-73
2022/06/19 05:18:53;;;;;;;6.37;2.95;;;;;;;24.04;58.63;99851.28;1983852;88;21098;-73
2022/06/19 05:21:54;;;;;;;5.37;3.08;;;;;;;24.14;58.02;99851.35;1966231;88;21097;-70
2022/06/19 05:24:56;;;;;;;5.30;3.35;;;;;;;24.32;57.38;99849.27;1984796;88;21046;-71
2022/06/19 05:27:58;;;;;;;3.22;2.87;;;;;;;24.60;57.21;99850.77;1987970;87;21068;-70
2022/06/19 05:31:01;;;;;;;3.17;2.87;;;;;;;24.74;55.69;99851.09;1986180;88;21090;-70
2022/06/19 05:34:03;;;;;;;5.08;3.00;;;;;;;24.74;55.67;99849.73;1986348;88;21149;-70
2022/06/19 05:37:05;;;;;;;2.98;2.67;;;;;;;24.76;54.57;99846.22;1984382;87;21560;-72
2022/06/19 05:40:09;;;;;;;3.20;2.77;;;;;;;25.03;54.48;99848.19;1983856;87;21122;-69
2022/06/19 05:43:13;;;;;;;5.75;2.62;;;;;;;25.16;54.22;99850.13;1967115;88;22267;-70
2022/06/19 05:46:18;;;;;;;5.45;3.10;;;;;;;25.27;53.11;99851.22;1988059;88;21000;-76
2022/06/19 05:49:21;;;;;;;5.17;2.65;;;;;;;25.34;53.19;99846.90;1985230;88;21121;-70
2022/06/19 05:52:24;;;;;;;4.80;2.80;;;;;;;25.61;52.31;99843.89;1985165;88;21621;-69
2022/06/19 05:55:26;;;;;;;5.95;3.10;;;;;;;25.72;52.48;99843.34;1985850;88;21006;-70
2022/06/19 05:58:28;;;;;;;4.42;2.75;;;;;;;25.97;51.82;99840.34;1985111;87;21569;-69
2022/06/19 06:01:30;;;;;;;4.72;2.85;;;;;;;26.09;51.43;99846.28;1987298;88;21041;-70
2022/06/19 06:04:32;;;;;;;4.42;2.62;;;;;;;26.23;51.41;99845.97;1983221;88;21067;-70
2022/06/19 06:07:34;;;;;;;3.87;2.92;;;;;;;26.38;50.79;99837.77;1986725;88;21024;-71
2022/06/19 06:10:36;;;;;;;3.33;3.00;;;;;;;26.42;50.28;99845.38;1990871;87;21015;-70
2022/06/19 06:13:39;;;;;;;4.15;2.17;;;;;;;26.34;48.84;99830.44;1988507;88;21078;-71
2022/06/19 06:16:42;;;;;;;3.22;2.22;;;;;;;26.44;48.63;99829.56;1986400;88;21115;-70
2022/06/19 06:19:47;;;;;;;5.37;2.45;;;;;;;26.47;48.22;99818.13;1986561;87;21125;-70
2022/06/19 06:22:49;;;;;;;3.60;2.40;;;;;;;26.47;48.52;99815.41;1988419;88;21073;-71
2022/06/19 06:26:08;;;;;;;2.75;2.50;;;;;;;26.64;48.72;99820.00;1987202;88;22359;-73
2022/06/19 06:29:11;;;;;;;5.28;2.75;;;;;;;26.69;48.33;99810.42;1988528;88;21134;-70
2022/06/19 06:32:13;;;;;;;4.90;2.52;;;;;;;26.78;48.12;99808.75;1983617;87;20997;-71
2022/06/19 06:35:17;;;;;;;4.22;2.25;;;;;;;26.90;48.20;99806.23;1988778;88;21039;-69
2022/06/19 06:38:19;;;;;;;3.42;2.25;;;;;;;27.01;46.76;99796.34;1985532;88;21070;-70
2022/06/19 06:41:22;;;;;;;5.55;2.50;;;;;;;27.18;47.52;99805.51;1988391;87;21047;-70
2022/06/19 06:44:24;;;;;;;5.15;2.25;;;;;;;27.50;48.01;99807.67;1986210;88;21605;-71
2022/06/19 06:47:27;;;;;;;3.37;2.52;;;;;;;27.89;47.99;99811.42;1989073;87;20967;-72
2022/06/19 06:50:29;;;;;;;4.33;2.15;;;;;;;28.29;47.67;99819.67;1983701;88;21098;-73
2022/06/19 06:53:31;;;;;;;6.05;2.37;;;;;;;28.55;47.23;99817.48;1988387;88;21019;-74
2022/06/19 06:56:37;;;;;;;3.52;2.20;;;;;;;28.94;47.17;99817.73;1989716;88;20972;-72
2022/06/19 06:59:38;;;;;;;7.67;2.30;;;;;;;29.25;46.40;99819.45;1987000;87;21031;-72
2022/06/19 07:02:41;;;;;;;3.50;2.33;;;;;;;29.58;46.11;99821.39;1988917;88;21077;-75
2022/06/19 07:05:43;;;;;;;5.62;2.12;;;;;;;29.95;45.96;99810.87;1985289;88;21078;-73
2022/06/19 07:08:44;;;;;;;12.18;2.30;;;;;;;30.34;44.96;99809.02;1986500;88;21022;-74
2022/06/19 07:11:47;;;;;;;6.78;2.25;;;;;;;30.40;42.39;99810.28;1986077;88;21512;-74
2022/06/19 07:14:49;;;;;;;8.68;2.20;;;;;;;30.32;41.09;99806.34;1984998;87;22222;-75
2022/06/19 07:17:51;;;;;;;6.28;2.08;;;;;;;30.23;41.16;99802.14;1987166;88;20997;-75
2022/06/19 07:20:54;;;;;;;6.35;1.82;;;;;;;30.26;40.07;99793.88;1989332;88;22292;-74
2022/06/19 07:23:56;;;;;;;4.03;2.17;;;;;;;30.31;40.44;99789.11;1986044;88;21474;-74
2022/06/19 07:26:59;;;;;;;3.08;1.80;;;;;;;30.59;39.32;99780.85;1985055;88;21631;-74
2022/06/19 07:30:07;;;;;;;2.90;2.00;;;;;;;30.77;39.60;99777.70;1986904;88;21109;-74
2022/06/19 07:33:10;;;;;;;2.65;1.87;;;;;;;30.80;39.28;99775.73;1986544;87;21052;-75
2022/06/19 07:36:19;;;;;;;6.03;2.05;;;;;;;30.82;38.90;99771.56;1982616;88;21059;-74
2022/06/19 07:39:21;;;;;;;5.22;1.82;;;;;;;30.98;38.42;99764.37;1983328;88;21122;-74
2022/06/19 07:42:23;;;;;;;3.70;1.90;;;;;;;31.09;37.48;99763.00;1987816;88;21041;-75
2022/06/19 07:45:25;;;;;;;3.15;1.95;;;;;;;31.16;37.43;99757.87;1983197;88;21011;-75
2022/06/19 07:51:50;;;;;;;5.03;1.80;;;;;;;31.49;37.36;99745.28;1985097;88;21062;-74
2022/06/19 07:54:54;;;;;;;10.95;2.08;;;;;;;31.56;36.30;99742.87;1984698;88;21076;-74
2022/06/19 07:57:55;;;;;;;3.77;1.50;;;;;;;31.66;35.94;99750.03;1984684;88;21097;-74
2022/06/19 08:00:59;;;;;;;3.45;1.77;;;;;;;31.78;35.74;99748.85;1984266;88;22267;-74
2022/06/19 08:04:01;;;;;;;3.72;2.08;;;;;;;31.92;35.37;99745.46;1985210;88;21085;-75
2022/06/19 08:07:03;;;;;;;7.03;2.00;;;;;;;31.89;35.48;99738.41;1987926;88;21051;-74
2022/06/19 08:10:10;;;;;;;8.98;2.20;;;;;;;32.11;36.42;99738.34;1983882;88;21027;-75
2022/06/19 08:13:12;;;;;;;4.15;1.87;;;;;;;32.31;35.96;99733.36;1967854;88;21099;-77
2022/06/19 08:16:14;;;;;;;4.80;1.90;;;;;;;32.44;35.29;99726.09;1985016;87;21039;-74
2022/06/19 08:19:15;;;;;;;5.30;1.70;;;;;;;32.44;34.33;99731.58;1983886;88;21019;-74
2022/06/19 08:22:19;;;;;;;7.00;2.00;;;;;;;32.43;34.40;99730.78;1985469;87;21047;-74
2022/06/19 08:25:24;;;;;;;2.37;1.90;;;;;;;32.48;34.55;99733.97;1986804;87;21018;-73
2022/06/19 08:28:33;;;;;;;8.78;1.95;;;;;;;32.62;35.03;99736.56;1985171;88;21072;-74
2022/06/19 08:31:34;;;;;;;5.62;2.12;;;;;;;32.84;34.26;99739.71;1982475;88;21116;-76
2022/06/19 08:34:36;;;;;;;3.30;1.85;;;;;;;32.95;33.74;99740.41;1986206;88;21013;-73
2022/06/19 08:37:42;;;;;;;3.50;1.95;;;;;;;33.20;33.79;99740.73;1985442;88;21676;-77
2022/06/19 08:41:19;;;;;;;4.55;2.00;;;;;;;33.29;33.57;99727.77;1984061;87;21090;-72
2022/06/19 08:44:27;;;;;;;11.05;1.92;;;;;;;33.39;32.98;99735.63;1988979;88;21141;-74
2022/06/19 08:47:59;;;;;;;8.98;1.90;;;;;;;33.34;33.06;99723.47;1988484;87;21050;-73
2022/06/19 08:51:06;;;;;;;10.10;2.52;;;;;;;33.37;32.69;99723.38;1986221;88;21093;-73
2022/06/19 08:54:28;;;;;;;6.05;1.67;;;;;;;33.27;32.87;99716.28;1984476;88;21076;-73
2022/06/19 08:58:03;;;;;;;8.98;1.80;;;;;;;33.32;32.62;99721.61;1984896;88;21003;-76
2022/06/19 09:01:25;;;;;;;3.45;1.87;;;;;;;33.38;31.88;99718.91;1983110;88;21130;-76
2022/06/19 09:07:58;;;;;;;6.85;1.85;;;;;;;33.39;32.22;99715.59;1990920;86;21019;-74
2022/06/19 09:11:03;;;;;;;;;;;;;;;33.38;31.67;99708.48;1985866;88;21133;-76
2022/06/19 09:14:22;;;;;;;8.55;1.80;;;;;;;33.32;31.11;99708.44;1983810;88;20485;-76
2022/06/19 09:17:51;;;;;;;2.37;1.70;;;;;;;33.26;31.38;99716.05;1981913;88;21052;-76
2022/06/19 09:21:11;;;;;;;9.50;1.90;;;;;;;33.23;31.15;99713.96;1985272;87;21101;-76
2022/06/19 09:24:54;;;;;;;23.92;2.52;;;;;;;33.23;31.02;99716.14;1984235;88;21565;-75
2022/06/19 09:28:03;;;;;;;5.30;1.60;;;;;;;33.35;31.24;99709.95;1983370;88;21609;-76
2022/06/19 09:31:20;;;;;;;6.83;1.82;;;;;;;33.45;31.69;99709.59;1984430;88;21432;-82
2022/06/19 09:34:32;;;;;;;3.42;2.35;;;;;;;33.57;31.04;99695.75;1983476;88;21112;-76
2022/06/19 09:37:58;;;;;;;5.10;2.00;;;;;;;33.67;30.98;99693.98;1983859;88;21063;-76
2022/06/19 09:41:04;;;;;;;6.78;1.70;;;;;;;33.92;31.38;99690.84;1984872;88;20987;-76
2022/06/19 09:44:22;;;;;;;4.78;1.72;;;;;;;34.06;31.34;99684.55;1982729;88;21001;-77
2022/06/19 09:47:41;;;;;;;5.87;1.95;;;;;;;34.22;31.39;99673.75;1975603;88;21100;-77
2022/06/19 09:50:52;;;;;;;3.33;1.77;;;;;;;34.19;31.54;99668.92;1929317;89;21607;-79
2022/06/19 09:54:04;;;;;;;5.85;1.75;;;;;;;34.28;32.01;99660.59;1952084;89;21103;-84
2022/06/19 09:57:15;;;;;;;6.35;2.60;;;;;;;34.42;31.02;99656.98;1915136;89;21088;-78
2022/06/19 10:00:25;;;;;;;2.65;1.90;;;;;;;34.46;31.68;99661.23;1954185;89;21104;-77
2022/06/19 10:03:43;;;;;;;6.22;2.22;;;;;;;34.46;31.59;99657.11;1954754;89;21091;-78
2022/06/19 10:06:52;;;;;;;5.85;1.82;;;;;;;34.54;30.71;99646.59;1948074;89;21489;-77
2022/06/19 10:09:59;;;;;;;12.37;2.08;;;;;;;34.44;31.56;99646.99;1932527;91;21036;-77
2022/06/19 10:13:09;;;;;;;7.45;2.15;;;;;;;34.40;31.30;99657.09;1985965;88;21110;-77
2022/06/19 10:16:18;;;;;;;3.83;2.10;;;;;;;34.31;31.79;99642.02;1983066;88;21072;-76
2022/06/19 10:19:39;;;;;;;6.45;1.70;;;;;;;34.25;31.38;99637.30;1944830;89;21058;-77
2022/06/19 10:23:25;;;;;;;6.30;1.90;;;;;;;34.21;31.29;99625.33;1933305;90;21085;-77
2022/06/19 10:27:00;;;;;;;6.83;2.20;;;;;;;34.18;31.25;99639.77;1938066;90;21025;-76
2022/06/19 10:30:42;;;;;;;4.65;1.62;;;;;;;34.05;31.49;99633.98;1913677;90;21129;-76
2022/06/19 10:33:52;;;;;;;4.55;1.75;;;;;;;33.98;31.56;99625.41;1934468;88;21057;-73
2022/06/19 10:37:05;;;;;;;5.83;2.20;;;;;;;33.95;29.42;99606.83;1954797;89;21040;-77
2022/06/19 10:40:42;;;;;;;8.90;1.90;;;;;;;33.96;30.77;99626.31;1958043;89;21048;-85
2022/06/19 10:43:59;;;;;;;6.87;2.23;;;;;;;33.99;30.84;99620.97;1952945;89;21642;-80
2022/06/19 10:47:20;;;;;;;8.45;2.35;;;;;;;34.05;31.02;99609.21;1949648;89;21119;-77
2022/06/19 10:51:02;;;;;;;10.63;2.15;;;;;;;33.78;29.28;99602.25;1964924;88;21051;-77
2022/06/19 10:54:30;;;;;;;11.25;2.17;;;;;;;33.61;30.12;99606.72;1985922;88;21038;-77
2022/06/19 10:58:02;;;;;;;7.72;2.20;;;;;;;33.46;30.02;99601.21;1985691;88;22269;-84
2022/06/19 11:01:08;;;;;;;5.67;1.90;;;;;;;33.64;30.67;99602.50;1984555;87;21090;-76
2022/06/19 11:04:13;;;;;;;10.25;1.87;;;;;;;33.66;30.56;99585.11;1985245;88;21093;-85
2022/06/19 11:07:18;;;;;;;5.62;1.67;;;;;;;33.73;28.37;99590.87;1968304;88;21541;-76
2022/06/19 11:10:43;;;;;;;9.30;2.33;;;;;;;33.58;29.69;99590.09;1986619;88;21055;-76
2022/06/19 11:14:11;;;;;;;4.50;2.10;;;;;;;33.71;30.41;99587.67;1990529;87;21015;-82
2022/06/19 11:17:40;;;;;;;8.05;2.15;;;;;;;33.86;30.72;99574.67;1987633;87;21038;-77
2022/06/19 11:21:05;;;;;;;13.08;2.27;;;;;;;33.87;28.26;99564.47;1961534;88;21114;-80
2022/06/19 11:24:12;;;;;;;6.10;1.90;;;;;;;33.71;29.75;99568.41;1985488;87;21063;-73
2022/06/19 11:27:26;;;;;;;8.28;2.33;;;;;;;33.81;30.40;99567.99;1983504;87;21042;-72
2022/06/19 11:30:36;;;;;;;6.92;2.10;;;;;;;33.89;29.52;99564.37;1988018;88;21075;-72
2022/06/19 11:33:39;;;;;;;6.40;2.20;;;;;;;33.69;27.84;99545.93;1987768;87;21078;-72
2022/06/19 11:36:42;;;;;;;14.78;2.45;;;;;;;33.41;27.93;99574.48;1982505;88;21159;-73
2022/06/19 11:39:49;;;;;;;6.95;2.10;;;;;;;33.24;28.76;99552.02;1989552;88;21042;-73
2022/06/19 11:42:57;;;;;;;10.10;2.30;;;;;;;33.26;29.47;99549.75;1988698;88;21062;-72
2022/06/19 11:46:10;;;;;;;8.20;2.55;;;;;;;33.42;29.86;99550.78;1990318;88;21101;-80
2022/06/19 11:49:37;;;;;;;5.95;2.25;;;;;;;33.54;30.24;99532.22;1983584;88;21058;-75
2022/06/19 11:52:55;;;;;;;9.25;2.30;;;;;;;33.65;28.98;99527.92;1985933;88;21113;-79
2022/06/19 11:56:23;;;;;;;8.48;2.47;;;;;;;33.68;29.68;99521.75;1986846;88;21120;-73
2022/06/19 11:59:45;;;;;;;5.53;1.90;;;;;;;33.70;29.37;99521.39;1981967;88;21077;-74
2022/06/19 12:02:45;;;;;;;6.30;2.27;;;;;;;33.69;28.89;99525.30;1987395;88;21074;-74
2022/06/19 12:05:55;;;;;;;13.75;2.55;;;;;;;33.48;26.79;99515.08;1986865;88;20999;-75
2022/06/19 12:09:02;;;;;;;5.65;2.02;;;;;;;33.25;26.59;99504.14;1985482;88;21041;-75
2022/06/19 12:12:18;;;;;;;7.47;2.00;;;;;;;33.23;28.10;99510.56;1985892;87;21054;-75
2022/06/19 12:15:30;;;;;;;7.15;1.75;;;;;;;33.39;27.89;99504.69;1984110;87;21059;-74
2022/06/19 12:18:33;;;;;;;14.93;2.20;;;;;;;33.50;26.41;99494.10;1984419;87;22330;-73
2022/06/19 12:21:41;;;;;;;5.75;1.87;;;;;;;33.44;27.10;99493.50;1985679;88;21105;-77
2022/06/19 12:24:56;;;;;;;9.33;1.92;;;;;;;33.36;25.64;99494.94;1988213;87;21059;-76
2022/06/19 12:28:39;;;;;;;12.10;2.12;;;;;;;33.29;26.91;99477.61;1986585;88;21073;-72
2022/06/19 12:31:43;;;;;;;10.60;1.95;;;;;;;33.22;25.20;99469.08;1990289;88;21513;-75
2022/06/19 12:34:48;;;;;;;10.70;2.80;;;;;;;33.15;26.33;99470.19;1986622;88;21105;-75
2022/06/19 12:37:51;;;;;;;9.63;2.33;;;;;;;33.10;26.53;99467.63;1987336;88;21042;-77
2022/06/19 12:41:31;;;;;;;10.90;2.30;;;;;;;33.12;25.90;99471.66;1986339;88;20989;-76
2022/06/19 12:45:16;;;;;;;8.20;2.25;;;;;;;33.00;26.76;99466.05;1985122;88;21081;-78
2022/06/19 12:48:47;;;;;;;6.97;1.87;;;;;;;33.02;28.18;99461.84;1986117;88;21018;-76
2022/06/19 12:51:57;;;;;;;10.25;1.98;;;;;;;33.17;29.22;99452.77;1986601;88;21786;-77
2022/06/19 12:55:34;;;;;;;7.83;2.15;;;;;;;33.31;28.65;99459.39;1977655;88;21536;-73
2022/06/19 12:58:53;;;;;;;6.75;2.20;;;;;;;33.22;27.75;99466.33;1986853;88;21100;-75
2022/06/19 13:02:14;;;;;;;;;;;;;;;33.12;28.26;99457.91;1981568;88;20981;-73
2022/06/19 13:05:38;;;;;;;12.10;2.25;;;;;;;33.04;27.41;99447.20;1984950;88;20176;-73
2022/06/19 13:09:07;;;;;;;9.10;2.00;;;;;;;32.96;27.39;99449.98;1979036;87;21127;-76
2022/06/19 13:12:40;;;;;;;11.05;2.25;;;;;;;32.90;27.53;99449.37;1979640;88;21166;-77
2022/06/19 13:16:12;;;;;;;5.33;2.15;;;;;;;32.87;27.46;99433.55;1989882;88;21044;-75
2022/06/19 13:19:51;;;;;;;25.35;3.17;;;;;;;32.92;27.83;99423.75;1987603;88;21078;-74
2022/06/19 13:23:27;;;;;;;11.08;2.12;;;;;;;32.93;27.58;99423.17;1992066;87;21110;-78
2022/06/19 13:27:15;;;;;;;9.57;2.63;;;;;;;32.94;27.82;99428.89;1989703;87;21131;-74
2022/06/19 13:35:26;;;;;;;12.00;2.30;;;;;;;32.88;28.64;99418.67;1989053;87;21076;-74
2022/06/19 13:38:54;;;;;;;11.12;2.30;;;;;;;32.76;27.90;99397.98;1962564;87;21609;-74
2022/06/19 13:42:14;;;;;;;8.35;2.25;;;;;;;32.68;28.59;99390.61;1966488;88;21522;-74
2022/06/19 14:24:36;;;;;;;11.25;2.70;;;;;;;32.12;29.18;99347.55;2129063;80;21207;-73
2022/06/19 14:28:02;;;;;;;10.75;3.10;;;;;;;32.07;29.56;99353.80;2003129;86;21039;-81
2022/06/19 14:31:12;;;;;;;10.20;2.70;;;;;;;32.08;30.03;99357.59;1997352;86;21062;-83
2022/06/19 14:34:46;;;;;;;14.03;2.87;;;;;;;32.15;29.87;99344.15;1997179;86;21537;-81
2022/06/19 14:38:05;;;;;;;10.65;2.65;;;;;;;32.17;29.98;99347.16;1993565;87;20996;-82
2022/06/19 14:41:25;;;;;;;10.75;2.80;;;;;;;32.09;30.28;99346.05;2014812;86;21050;-81
2022/06/19 14:44:28;;;;;;;9.15;2.83;;;;;;;31.98;30.21;99346.97;1970762;89;21071;-84
2022/06/19 14:47:35;;;;;;;10.85;2.47;;;;;;;31.97;30.69;99350.85;1989853;86;21009;-86
2022/06/19 14:50:45;;;;;;;14.38;3.52;;;;;;;31.90;31.01;99346.39;1994218;86;21095;-86
2022/06/19 14:54:17;;;;;;;8.55;2.62;;;;;;;31.91;31.38;99349.42;2008650;87;20998;-86
2022/06/19 14:57:47;;;;;;;9.35;2.60;;;;;;;31.77;30.64;99342.73;2000323;86;21085;-87
2022/06/19 15:00:59;;;;;;;7.75;2.50;;;;;;;31.67;30.29;99343.88;1998286;87;21534;-86
2022/06/19 15:04:10;;;;;;;8.80;2.40;;;;;;;31.58;30.92;99351.32;1997810;86;21620;-86
2022/06/19 15:07:22;;;;;;;9.05;2.62;;;;;;;31.56;31.69;99348.66;1995129;86;21061;-84
2022/06/19 15:10:28;;;;;;;7.47;2.40;;;;;;;31.56;31.59;99336.33;1995038;86;21052;-84
2022/06/19 15:13:46;;;;;;;8.53;2.52;;;;;;;31.51;31.72;99333.20;1997077;87;21032;-86
2022/06/19 15:17:04;;;;;;;10.75;2.60;;;;;;;31.46;31.33;99327.89;2001268;86;20994;-86
2022/06/19 15:20:30;;;;;;;7.85;2.27;;;;;;;31.39;32.19;99331.10;2006556;86;21080;-88
2022/06/19 15:23:37;;;;;;;7.78;2.77;;;;;;;31.28;32.30;99317.47;1999164;86;21024;-87
2022/06/19 15:26:40;;;;;;;10.10;2.77;;;;;;;31.19;32.37;99309.25;2012585;86;21062;-86
2022/06/19 15:30:09;;;;;;;13.80;3.05;;;;;;;31.16;32.16;99310.47;2035054;85;21035;-84
2022/06/19 15:33:32;;;;;;;10.67;2.87;;;;;;;31.12;32.03;99298.56;2020734;87;21515;-86
2022/06/19 15:36:55;;;;;;;9.55;2.25;;;;;;;31.04;31.89;99296.86;2012941;87;21033;-84
2022/06/19 15:40:17;;;;;;;10.40;2.70;;;;;;;30.96;32.08;99293.55;2020699;86;21111;-86
2022/06/19 15:43:24;;;;;;;18.95;2.60;;;;;;;30.94;32.24;99286.22;2021590;86;21071;-86
2022/06/19 15:46:27;;;;;;;8.80;2.80;;;;;;;30.88;32.69;99283.41;2015380;86;21047;-86